Time;durP1;ratioP1;P1;durP2;ratioP2;P2;SDS_P1;SDS_P2;PMS_P1;PMS_P2;Temp;Humidity;BMP_temperature;BMP_pressure;BME280_temperature;BME280_humidity;BME280_pressure;Samples;Min_cycle;Max_cycle;Signal;HPM_P1;HPM_P2
2022/03/14 00:01:24;;;;;;;3.47;0.40;;;25.90;99.90;;;;;;4917930;29;20320;-69
2022/03/14 00:03:55;;;;;;;1.53;0.40;;;26.40;99.90;;;;;;4918650;29;20604;-69
2022/03/14 00:06:23;;;;;;;5.23;0.70;;;27.50;99.90;;;;;;4918705;29;20701;-69
2022/03/14 00:08:57;;;;;;;2.97;0.60;;;28.00;99.90;;;;;;4918733;29;20229;-70
2022/03/14 00:11:27;;;;;;;1.43;0.43;;;28.00;99.90;;;;;;4919149;29;20184;-69
2022/03/14 00:13:57;;;;;;;1.30;0.40;;;27.80;99.90;;;;;;4918240;29;20702;-70
2022/03/14 00:16:26;;;;;;;5.43;0.50;;;27.60;99.90;;;;;;4916084;29;20242;-70
2022/03/14 00:18:58;;;;;;;1.57;0.60;;;27.30;99.90;;;;;;4918475;29;20224;-70
2022/03/14 00:21:27;;;;;;;3.90;0.87;;;27.20;99.90;;;;;;4918307;29;20201;-69
2022/03/14 00:23:56;;;;;;;2.43;0.60;;;27.10;99.90;;;;;;4918577;29;20185;-69
2022/03/14 00:26:26;;;;;;;2.70;0.60;;;27.50;99.90;;;;;;4918118;29;20216;-70
2022/03/14 00:28:54;;;;;;;1.13;0.60;;;27.90;99.90;;;;;;4918479;29;20189;-71
2022/03/14 00:31:22;;;;;;;2.97;0.60;;;28.10;99.90;;;;;;4918288;29;20321;-69
2022/03/14 00:33:50;;;;;;;3.17;0.50;;;28.30;99.90;;;;;;4918237;29;20189;-69
2022/03/14 00:36:19;;;;;;;2.37;0.40;;;27.60;99.90;;;;;;4917929;29;20247;-69
2022/03/14 00:38:47;;;;;;;3.87;0.53;;;26.80;99.90;;;;;;4918249;29;20207;-69
2022/03/14 00:41:16;;;;;;;2.00;0.43;;;26.60;99.90;;;;;;4917834;29;20780;-69
2022/03/14 00:43:45;;;;;;;2.03;0.80;;;26.30;99.90;;;;;;4916838;29;20616;-69
2022/03/14 00:46:17;;;;;;;2.27;0.50;;;26.00;99.90;;;;;;4917720;29;20245;-69
2022/03/14 00:48:47;;;;;;;3.70;1.00;;;25.80;99.90;;;;;;4917601;29;20678;-69
2022/03/14 00:51:16;;;;;;;5.73;0.70;;;26.00;99.90;;;;;;4917790;29;20194;-70
2022/03/14 00:53:44;;;;;;;3.77;0.50;;;25.70;99.90;;;;;;4917631;29;20196;-69
2022/03/14 00:56:12;;;;;;;2.37;0.50;;;25.60;99.90;;;;;;4917608;29;20244;-70
2022/03/14 00:58:40;;;;;;;4.00;0.93;;;26.60;99.90;;;;;;4917681;29;20235;-69
2022/03/14 01:01:07;;;;;;;1.47;0.40;;;27.60;99.90;;;;;;4917642;29;20255;-70
2022/03/14 01:03:35;;;;;;;0.93;0.30;;;27.80;99.90;;;;;;4917855;29;20204;-69
2022/03/14 01:06:03;;;;;;;1.80;0.60;;;28.90;99.90;;;;;;4917427;29;20682;-68
2022/03/14 01:08:31;;;;;;;3.90;0.70;;;28.70;99.90;;;;;;4917676;29;20563;-67
2022/03/14 01:10:59;;;;;;;2.33;0.63;;;28.60;99.90;;;;;;4914969;29;20197;-68
2022/03/14 01:13:27;;;;;;;3.20;0.77;;;29.10;99.90;;;;;;4915571;29;20197;-68
2022/03/14 01:15:55;;;;;;;1.73;0.50;;;28.60;99.90;;;;;;4915779;29;20213;-69
2022/03/14 01:18:23;;;;;;;4.87;1.30;;;27.40;99.90;;;;;;4912994;29;20199;-69
2022/03/14 01:20:50;;;;;;;4.83;1.00;;;26.80;99.90;;;;;;4915923;29;20229;-69
2022/03/14 01:23:18;;;;;;;2.87;0.63;;;26.50;99.90;;;;;;4916613;29;20571;-69
2022/03/14 01:25:47;;;;;;;5.17;0.80;;;27.30;99.90;;;;;;4917148;29;20204;-69
2022/03/14 01:28:15;;;;;;;4.10;0.70;;;27.10;99.90;;;;;;4916697;29;20542;-68
2022/03/14 01:30:44;;;;;;;3.97;0.87;;;26.60;99.90;;;;;;4916811;29;20197;-69
2022/03/14 01:33:15;;;;;;;1.77;0.50;;;26.40;99.90;;;;;;4917857;29;20178;-69
2022/03/14 01:35:42;;;;;;;7.33;0.60;;;26.20;99.90;;;;;;4921106;29;20593;-69
2022/03/14 01:38:11;;;;;;;3.90;0.60;;;26.20;99.90;;;;;;4921543;29;20181;-68
2022/03/14 01:40:39;;;;;;;2.20;0.83;;;26.10;99.90;;;;;;4922062;29;20186;-69
2022/03/14 01:43:06;;;;;;;4.30;0.70;;;26.40;99.90;;;;;;4922897;29;20189;-69
2022/03/14 01:45:34;;;;;;;5.13;1.00;;;27.30;99.90;;;;;;4921234;29;20185;-71
2022/03/14 01:48:02;;;;;;;2.17;0.70;;;27.10;99.90;;;;;;4922915;29;20192;-69
2022/03/14 01:50:30;;;;;;;6.70;1.10;;;26.70;99.90;;;;;;4917001;29;20189;-69
2022/03/14 01:52:57;;;;;;;3.07;0.80;;;26.60;99.90;;;;;;4917044;29;20241;-69
2022/03/14 01:55:25;;;;;;;4.70;0.83;;;26.60;99.90;;;;;;4916517;29;20606;-70
2022/03/14 01:57:56;;;;;;;1.87;0.67;;;26.40;99.90;;;;;;4916452;29;20193;-69
2022/03/14 02:00:24;;;;;;;4.50;0.90;;;26.20;99.90;;;;;;4916254;29;20197;-69
2022/03/14 02:02:52;;;;;;;4.57;0.80;;;26.00;99.90;;;;;;4916651;29;20244;-70
2022/03/14 02:05:20;;;;;;;2.47;0.70;;;26.10;99.90;;;;;;4916320;29;20200;-70
2022/03/14 02:07:47;;;;;;;2.53;0.67;;;26.80;99.90;;;;;;4916697;29;20271;-69
2022/03/14 02:10:16;;;;;;;6.47;0.90;;;26.70;99.90;;;;;;4914848;29;20551;-69
2022/03/14 02:12:44;;;;;;;3.13;1.00;;;26.70;99.90;;;;;;4916152;29;20201;-69
2022/03/14 02:15:12;;;;;;;4.60;0.50;;;27.20;99.90;;;;;;4913930;29;20730;-69
2022/03/14 02:17:40;;;;;;;2.87;0.60;;;27.00;99.90;;;;;;4915721;29;20197;-69
2022/03/14 02:20:08;;;;;;;2.23;0.80;;;27.70;99.90;;;;;;4915601;29;20235;-69
2022/03/14 02:22:36;;;;;;;1.37;0.60;;;28.70;99.90;;;;;;4916526;29;20185;-69
2022/03/14 02:25:10;;;;;;;2.10;0.57;;;28.20;99.90;;;;;;4916128;29;20178;-69
2022/03/14 02:27:39;;;;;;;2.43;0.83;;;27.60;99.90;;;;;;4916818;29;20216;-69
2022/03/14 02:30:07;;;;;;;3.23;0.80;;;27.30;99.90;;;;;;4916882;29;20182;-70
2022/03/14 02:32:39;;;;;;;2.27;0.80;;;27.90;99.90;;;;;;4915428;29;20200;-68
2022/03/14 02:35:08;;;;;;;2.00;0.43;;;28.60;99.90;;;;;;4916919;29;20512;-69
2022/03/14 02:37:36;;;;;;;5.63;0.70;;;28.40;99.90;;;;;;4917019;29;20182;-69
2022/03/14 02:40:05;;;;;;;0.83;0.53;;;27.90;99.90;;;;;;4916098;29;20177;-69
2022/03/14 02:42:33;;;;;;;1.60;0.40;;;27.50;99.90;;;;;;4915572;29;20289;-69
2022/03/14 02:45:02;;;;;;;1.60;0.50;;;27.50;99.90;;;;;;4915491;29;20181;-68
2022/03/14 02:47:30;;;;;;;2.17;0.53;;;28.40;99.90;;;;;;4915425;29;20225;-68
2022/03/14 02:49:59;;;;;;;3.33;0.83;;;28.80;99.90;;;;;;4915565;29;20177;-68
2022/03/14 02:52:27;;;;;;;1.80;0.70;;;28.30;99.90;;;;;;4915604;29;20268;-68
2022/03/14 02:54:55;;;;;;;2.83;0.67;;;27.60;99.90;;;;;;4916552;29;20236;-68
2022/03/14 02:57:22;;;;;;;1.50;0.50;;;27.80;99.90;;;;;;4917227;29;20670;-68
2022/03/14 02:59:50;;;;;;;2.87;0.50;;;28.00;99.90;;;;;;4916996;29;20579;-68
2022/03/14 03:02:19;;;;;;;2.37;0.40;;;27.40;99.90;;;;;;4916951;29;20233;-68
2022/03/14 03:04:46;;;;;;;3.50;0.63;;;26.70;99.90;;;;;;4917143;29;20173;-69
2022/03/14 03:07:14;;;;;;;3.10;0.60;;;26.10;99.90;;;;;;4916840;29;20283;-68
2022/03/14 03:09:42;;;;;;;5.63;0.90;;;25.40;99.90;;;;;;4917042;29;20552;-68
2022/03/14 03:12:14;;;;;;;2.30;0.77;;;24.90;99.90;;;;;;4916825;29;20585;-68
2022/03/14 03:14:42;;;;;;;4.33;1.03;;;24.70;99.90;;;;;;4917033;29;20181;-67
2022/03/14 03:17:10;;;;;;;3.47;0.77;;;24.50;99.90;;;;;;4916943;29;20639;-67
2022/03/14 03:19:38;;;;;;;4.63;0.97;;;24.40;99.90;;;;;;4916841;29;20181;-68
2022/03/14 03:22:06;;;;;;;5.07;0.80;;;24.20;99.90;;;;;;4916874;29;20181;-68
2022/03/14 03:24:34;;;;;;;3.83;0.67;;;24.10;99.90;;;;;;4916741;29;20240;-68
2022/03/14 03:27:02;;;;;;;2.53;0.60;;;24.00;99.90;;;;;;4916695;29;20251;-68
2022/03/14 03:29:29;;;;;;;3.37;0.60;;;23.70;99.90;;;;;;4915453;29;20192;-68
2022/03/14 03:31:57;;;;;;;1.60;0.40;;;23.90;99.90;;;;;;4918747;29;20192;-68
2022/03/14 03:34:25;;;;;;;1.00;0.40;;;23.90;99.90;;;;;;4919542;29;20186;-68
2022/03/14 03:36:52;;;;;;;2.83;0.73;;;23.80;99.90;;;;;;4914732;29;20200;-69
2022/03/14 03:39:20;;;;;;;1.33;0.43;;;24.30;99.90;;;;;;4917623;29;20193;-69
2022/03/14 03:41:48;;;;;;;1.60;0.60;;;24.40;99.90;;;;;;4918709;29;20307;-67
2022/03/14 03:44:16;;;;;;;1.40;0.53;;;24.60;99.90;;;;;;4919086;29;20272;-67
2022/03/14 03:46:43;;;;;;;1.43;0.50;;;24.80;99.90;;;;;;4919033;29;20224;-68
2022/03/14 03:49:11;;;;;;;1.67;0.40;;;24.90;99.90;;;;;;4918714;29;20195;-67
2022/03/14 03:51:39;;;;;;;1.17;0.50;;;25.50;99.90;;;;;;4917481;29;20288;-68
2022/03/14 03:54:07;;;;;;;4.40;0.77;;;26.30;99.90;;;;;;4918855;29;20184;-69
2022/03/14 03:56:38;;;;;;;1.70;0.60;;;26.10;99.90;;;;;;4919003;29;20726;-69
2022/03/14 03:59:07;;;;;;;1.70;0.60;;;25.70;99.90;;;;;;4918971;29;20177;-68
2022/03/14 04:01:35;;;;;;;1.23;0.70;;;25.60;99.90;;;;;;4916734;29;20249;-68
2022/03/14 04:04:03;;;;;;;3.23;0.90;;;25.80;99.90;;;;;;4918320;29;20196;-68
2022/03/14 04:06:30;;;;;;;4.67;0.90;;;25.80;99.90;;;;;;4918731;29;20213;-68
2022/03/14 04:09:00;;;;;;;1.70;0.57;;;25.80;99.90;;;;;;4918429;29;20271;-68
2022/03/14 04:11:28;;;;;;;2.77;0.60;;;26.20;99.90;;;;;;4918770;29;20189;-69
2022/03/14 04:13:58;;;;;;;5.93;0.70;;;26.00;99.90;;;;;;4917901;29;20695;-69
2022/03/14 04:16:27;;;;;;;1.73;0.57;;;26.00;99.90;;;;;;4912136;29;20715;-69
2022/03/14 04:18:56;;;;;;;2.70;0.70;;;26.20;99.90;;;;;;4918537;29;20193;-69
2022/03/14 04:21:25;;;;;;;2.70;0.97;;;26.40;99.90;;;;;;4918656;29;20265;-69
2022/03/14 04:23:52;;;;;;;3.33;1.10;;;27.00;99.90;;;;;;4918161;29;20228;-69
2022/03/14 04:26:21;;;;;;;2.33;0.90;;;26.40;99.90;;;;;;4918271;29;20221;-70
2022/03/14 04:28:49;;;;;;;4.87;0.93;;;26.00;99.90;;;;;;4917985;29;20185;-68
2022/03/14 04:31:17;;;;;;;4.93;1.13;;;25.40;99.90;;;;;;4917159;29;20193;-68
2022/03/14 04:33:44;;;;;;;5.87;1.13;;;25.00;99.90;;;;;;4918190;29;20192;-68
2022/03/14 04:36:13;;;;;;;4.97;1.07;;;25.60;99.90;;;;;;4917926;29;20189;-68
2022/03/14 04:38:41;;;;;;;2.93;0.70;;;26.00;99.90;;;;;;4918174;29;20205;-69
2022/03/14 04:41:09;;;;;;;4.20;1.20;;;25.70;99.90;;;;;;4917900;29;20256;-69
2022/03/14 04:43:36;;;;;;;3.93;1.20;;;26.30;99.90;;;;;;4917922;29;20693;-69
2022/03/14 04:46:04;;;;;;;6.90;1.20;;;26.60;99.90;;;;;;4918018;29;20225;-69
2022/03/14 04:48:32;;;;;;;8.10;1.30;;;26.10;99.90;;;;;;4917719;29;20193;-69
2022/03/14 04:51:00;;;;;;;6.50;1.40;;;26.20;99.90;;;;;;4916712;29;20196;-69
2022/03/14 04:53:27;;;;;;;5.43;1.20;;;26.30;99.90;;;;;;4917540;29;20216;-69
2022/03/14 04:55:55;;;;;;;2.23;0.80;;;26.40;99.90;;;;;;4917491;29;20192;-69
2022/03/14 04:58:23;;;;;;;3.00;0.90;;;26.20;99.90;;;;;;4917830;29;20182;-68
2022/03/14 05:00:50;;;;;;;4.87;0.90;;;26.00;99.90;;;;;;4917669;29;20263;-69
2022/03/14 05:03:18;;;;;;;9.73;1.20;;;25.80;99.90;;;;;;4916975;29;20181;-69
2022/03/14 05:05:46;;;;;;;8.27;1.00;;;26.00;99.90;;;;;;4915937;29;20287;-69
2022/03/14 05:08:14;;;;;;;3.23;0.87;;;25.80;99.90;;;;;;4917631;29;20181;-69
2022/03/14 05:10:42;;;;;;;6.63;1.23;;;25.80;99.90;;;;;;4916966;29;20209;-69
2022/03/14 05:13:09;;;;;;;6.17;1.20;;;25.70;99.90;;;;;;4917318;29;20579;-69
2022/03/14 05:15:37;;;;;;;5.60;1.20;;;25.20;99.90;;;;;;4917626;29;20240;-68
2022/03/14 05:18:05;;;;;;;4.40;1.10;;;25.10;99.90;;;;;;4916216;29;20189;-69
2022/03/14 05:20:36;;;;;;;5.77;1.20;;;25.00;99.90;;;;;;4915077;29;20567;-69
2022/03/14 05:23:03;;;;;;;6.37;1.40;;;24.90;99.90;;;;;;4917298;29;20173;-69
2022/03/14 05:25:31;;;;;;;3.80;0.97;;;25.10;99.90;;;;;;4917232;29;20184;-69
2022/03/14 05:27:59;;;;;;;6.07;1.57;;;25.30;99.90;;;;;;4917105;29;20244;-69
2022/03/14 05:30:27;;;;;;;5.57;1.10;;;25.20;99.90;;;;;;4917249;29;20710;-69
2022/03/14 05:32:55;;;;;;;5.70;1.17;;;25.20;99.90;;;;;;4915954;29;20644;-69
2022/03/14 05:35:23;;;;;;;2.83;0.93;;;25.00;99.90;;;;;;4915222;29;20340;-69
2022/03/14 05:37:50;;;;;;;6.90;1.20;;;24.70;99.90;;;;;;4916853;29;20196;-68
2022/03/14 05:40:20;;;;;;;4.27;1.13;;;24.60;99.90;;;;;;4915511;29;20197;-69
2022/03/14 05:42:51;;;;;;;7.93;1.10;;;24.40;99.90;;;;;;4917084;29;20197;-68
2022/03/14 05:45:21;;;;;;;5.63;1.30;;;24.40;99.90;;;;;;4916803;29;20197;-69
2022/03/14 05:47:51;;;;;;;6.13;1.30;;;24.30;99.90;;;;;;4916356;29;20280;-68
2022/03/14 05:50:20;;;;;;;11.33;1.87;;;24.20;99.90;;;;;;4914071;29;20185;-68
2022/03/14 05:52:54;;;;;;;10.00;1.27;;;24.20;99.90;;;;;;4914385;29;20189;-69
2022/03/14 05:55:22;;;;;;;5.07;1.20;;;24.00;99.90;;;;;;4914632;29;20173;-69
2022/03/14 05:57:50;;;;;;;11.67;1.50;;;24.00;99.90;;;;;;4916357;29;20185;-69
2022/03/14 06:00:22;;;;;;;4.90;0.97;;;23.90;99.90;;;;;;4915664;29;20201;-68
2022/03/14 06:02:52;;;;;;;7.27;1.67;;;24.00;99.90;;;;;;4915894;29;20193;-68
2022/03/14 06:05:22;;;;;;;3.90;0.87;;;24.10;99.90;;;;;;4916148;29;20181;-68
2022/03/14 06:07:50;;;;;;;3.90;1.03;;;24.00;99.90;;;;;;4915669;29;20679;-68
2022/03/14 06:10:18;;;;;;;6.37;1.00;;;23.90;99.90;;;;;;4915894;29;20182;-68
2022/03/14 06:12:46;;;;;;;7.60;1.17;;;23.90;99.90;;;;;;4915818;29;20204;-68
2022/03/14 06:15:16;;;;;;;5.53;1.33;;;23.90;99.90;;;;;;4916047;29;20568;-68
2022/03/14 06:17:44;;;;;;;5.73;1.20;;;24.10;99.90;;;;;;4915761;29;20185;-69
2022/03/14 06:20:15;;;;;;;4.37;1.03;;;24.00;99.90;;;;;;4915917;29;20196;-69
2022/03/14 06:22:47;;;;;;;6.20;1.30;;;24.10;99.90;;;;;;4916353;29;20189;-68
2022/03/14 06:25:19;;;;;;;7.17;1.10;;;24.00;99.90;;;;;;4915981;29;20583;-68
2022/03/14 06:27:47;;;;;;;6.50;1.07;;;23.90;99.90;;;;;;4915686;29;20232;-68
2022/03/14 06:30:15;;;;;;;3.33;1.07;;;24.00;99.90;;;;;;4915977;29;20193;-68
2022/03/14 06:32:46;;;;;;;8.90;1.17;;;23.90;99.90;;;;;;4915961;29;20216;-68
2022/03/14 06:35:16;;;;;;;10.97;1.43;;;23.90;99.90;;;;;;4915758;29;20591;-68
2022/03/14 06:37:45;;;;;;;5.00;1.03;;;24.00;99.90;;;;;;4915696;29;20709;-68
2022/03/14 06:40:14;;;;;;;7.33;1.10;;;24.20;99.90;;;;;;4915661;29;20180;-68
2022/03/14 06:42:48;;;;;;;6.90;1.23;;;24.10;99.90;;;;;;4916046;29;20259;-68
2022/03/14 06:45:23;;;;;;;6.90;1.57;;;24.20;99.90;;;;;;4915813;29;20646;-69
2022/03/14 06:47:54;;;;;;;5.63;1.40;;;24.20;99.90;;;;;;4915702;29;20234;-69
2022/03/14 06:50:23;;;;;;;2.33;0.70;;;24.30;99.90;;;;;;4915640;29;20789;-68
2022/03/14 06:52:51;;;;;;;6.87;1.70;;;24.10;99.90;;;;;;4915809;29;20260;-70
2022/03/14 06:55:19;;;;;;;4.43;0.87;;;23.90;99.90;;;;;;4915982;29;20608;-69
2022/03/14 06:57:48;;;;;;;7.33;1.10;;;23.70;99.90;;;;;;4915705;29;20281;-68
2022/03/14 07:00:16;;;;;;;6.43;1.27;;;23.60;99.90;;;;;;4915515;29;20275;-69
2022/03/14 07:02:44;;;;;;;4.87;1.17;;;23.50;99.90;;;;;;4915660;29;20228;-69
2022/03/14 07:05:23;;;;;;;6.27;1.13;;;23.50;99.90;;;;;;4915566;29;20188;-69
2022/03/14 07:07:52;;;;;;;4.33;1.50;;;23.30;99.90;;;;;;4915680;29;20215;-69
2022/03/14 07:10:21;;;;;;;5.93;1.20;;;23.30;99.90;;;;;;4915523;29;20647;-68
2022/03/14 07:12:50;;;;;;;3.47;0.77;;;23.20;99.90;;;;;;4915487;29;20615;-68
2022/03/14 07:15:23;;;;;;;8.43;0.90;;;23.10;99.90;;;;;;4915608;29;20183;-69
2022/03/14 07:17:51;;;;;;;6.80;1.33;;;23.10;99.90;;;;;;4915704;29;20658;-68
2022/03/14 07:20:22;;;;;;;4.80;0.93;;;23.20;99.90;;;;;;4915420;29;20188;-68
2022/03/14 07:23:03;;;;;;;5.00;1.00;;;23.20;99.90;;;;;;4915640;29;20192;-68
2022/03/14 07:25:38;;;;;;;7.93;1.30;;;23.10;99.90;;;;;;4914155;29;20199;-68
2022/03/14 07:28:08;;;;;;;7.50;1.20;;;23.00;99.90;;;;;;4914827;29;20753;-67
2022/03/14 07:30:38;;;;;;;6.53;1.13;;;23.00;99.90;;;;;;4915629;29;20177;-68
2022/03/14 07:33:06;;;;;;;7.93;1.10;;;22.90;99.90;;;;;;4915543;29;20184;-68
2022/03/14 07:35:35;;;;;;;6.47;0.97;;;22.90;99.90;;;;;;4915595;29;20181;-68
2022/03/14 07:38:04;;;;;;;6.47;1.17;;;23.00;99.90;;;;;;4915378;29;20181;-67
2022/03/14 07:40:32;;;;;;;9.03;1.40;;;22.90;99.90;;;;;;4915087;29;20653;-68
2022/03/14 07:43:01;;;;;;;6.73;1.17;;;22.90;99.90;;;;;;4915165;29;20194;-69
2022/03/14 07:45:29;;;;;;;4.93;1.00;;;23.00;99.90;;;;;;4915521;29;20188;-68
2022/03/14 07:47:58;;;;;;;3.90;0.83;;;22.90;99.90;;;;;;4915319;29;20221;-68
2022/03/14 07:50:27;;;;;;;12.07;1.27;;;22.80;99.90;;;;;;4915144;29;20192;-68
2022/03/14 07:52:56;;;;;;;6.47;1.10;;;22.70;99.90;;;;;;4914764;29;20275;-69
2022/03/14 07:55:24;;;;;;;8.37;1.40;;;22.70;99.90;;;;;;4915540;29;20187;-69
2022/03/14 07:57:52;;;;;;;11.13;1.70;;;22.60;99.90;;;;;;4915317;29;20185;-69
2022/03/14 08:00:20;;;;;;;5.50;1.27;;;22.50;99.90;;;;;;4914005;29;20190;-69
2022/03/14 08:02:49;;;;;;;4.33;1.07;;;22.40;99.90;;;;;;4914628;29;20193;-70
2022/03/14 08:05:23;;;;;;;5.90;1.13;;;22.40;99.90;;;;;;4915225;29;20185;-69
2022/03/14 08:07:52;;;;;;;7.33;1.20;;;22.30;99.90;;;;;;4914926;29;20219;-69
2022/03/14 08:10:20;;;;;;;9.13;1.03;;;22.20;99.90;;;;;;4915256;29;20174;-69
2022/03/14 08:12:53;;;;;;;6.23;1.40;;;22.20;99.90;;;;;;4914901;29;20320;-69
2022/03/14 08:15:25;;;;;;;5.27;1.07;;;22.10;99.90;;;;;;4915425;29;20570;-69
2022/03/14 08:17:55;;;;;;;6.03;1.00;;;21.90;99.90;;;;;;4917187;29;20185;-70
2022/03/14 08:20:26;;;;;;;11.77;1.83;;;21.80;99.90;;;;;;4918929;29;20647;-70
2022/03/14 08:22:55;;;;;;;6.00;1.27;;;21.70;99.90;;;;;;4919012;29;20195;-68
2022/03/14 08:25:23;;;;;;;5.53;1.60;;;21.60;99.90;;;;;;4918912;29;20189;-69
2022/03/14 08:27:52;;;;;;;5.03;1.40;;;21.50;99.90;;;;;;4918812;29;20299;-69
2022/03/14 08:30:24;;;;;;;5.73;1.60;;;21.50;99.90;;;;;;4918782;29;20257;-69
2022/03/14 08:32:56;;;;;;;6.97;1.37;;;21.40;99.90;;;;;;4900578;29;20569;-70
2022/03/14 08:35:25;;;;;;;8.87;1.30;;;21.30;99.90;;;;;;4914503;29;20271;-70
2022/03/14 08:37:55;;;;;;;6.87;1.47;;;21.20;99.90;;;;;;4915889;29;20242;-70
2022/03/14 08:40:25;;;;;;;4.27;1.20;;;21.20;99.90;;;;;;4919304;29;20586;-70
2022/03/14 08:42:55;;;;;;;5.93;1.97;;;21.10;99.90;;;;;;4919008;29;20729;-70
2022/03/14 08:45:24;;;;;;;2.60;1.00;;;21.00;99.90;;;;;;4919397;29;20213;-70
2022/03/14 08:47:53;;;;;;;5.50;1.50;;;21.00;99.90;;;;;;4918875;29;20215;-70
2022/03/14 08:50:21;;;;;;;7.57;1.30;;;20.90;99.90;;;;;;4919190;29;20181;-70
2022/03/14 08:52:49;;;;;;;8.17;1.60;;;20.90;99.90;;;;;;4918546;29;20183;-70
2022/03/14 08:55:17;;;;;;;4.10;1.47;;;20.80;99.90;;;;;;4918347;29;20710;-70
2022/03/14 08:57:45;;;;;;;4.53;1.53;;;20.80;99.90;;;;;;4918727;29;20184;-69
2022/03/14 09:00:13;;;;;;;7.97;1.53;;;20.70;99.90;;;;;;4919037;29;20601;-70
2022/03/14 09:02:43;;;;;;;6.27;1.23;;;20.60;99.90;;;;;;4918853;29;20597;-70
2022/03/14 09:05:11;;;;;;;6.93;1.43;;;20.50;99.90;;;;;;4918681;29;20215;-70
2022/03/14 09:07:39;;;;;;;6.70;1.60;;;20.50;99.90;;;;;;4918207;29;20224;-70
2022/03/14 09:10:09;;;;;;;5.77;1.40;;;20.50;99.90;;;;;;4918270;29;20193;-70
2022/03/14 09:12:38;;;;;;;4.53;1.63;;;20.40;99.90;;;;;;4917438;29;20629;-70
2022/03/14 09:15:08;;;;;;;5.67;1.67;;;20.30;99.90;;;;;;4918775;29;20174;-70
2022/03/14 09:17:47;;;;;;;11.27;1.87;;;20.40;99.90;;;;;;4918288;29;20190;-70
2022/03/14 09:20:15;;;;;;;9.73;1.77;;;20.40;99.90;;;;;;4918529;29;20209;-70
2022/03/14 09:22:45;;;;;;;5.87;1.90;;;20.40;99.90;;;;;;4918198;29;20221;-70
2022/03/14 09:25:15;;;;;;;4.67;1.47;;;20.30;99.90;;;;;;4918103;29;20546;-69
2022/03/14 09:27:43;;;;;;;8.33;1.53;;;20.20;99.90;;;;;;4917455;29;20217;-69
2022/03/14 09:30:13;;;;;;;4.63;1.50;;;20.20;99.90;;;;;;4917038;29;20184;-69
2022/03/14 09:32:41;;;;;;;9.07;2.33;;;20.10;99.90;;;;;;4918497;29;20562;-69
2022/03/14 09:35:10;;;;;;;4.17;1.50;;;20.00;99.90;;;;;;4918378;29;20257;-69
2022/03/14 09:37:40;;;;;;;6.00;2.33;;;19.90;99.90;;;;;;4918075;29;20189;-70
2022/03/14 09:40:13;;;;;;;12.73;2.40;;;19.90;99.90;;;;;;4918219;29;20189;-70
2022/03/14 09:42:45;;;;;;;6.20;1.90;;;19.80;99.90;;;;;;4918413;29;20549;-69
2022/03/14 09:45:14;;;;;;;8.57;2.20;;;19.80;99.90;;;;;;4918428;29;20190;-68
2022/03/14 09:47:45;;;;;;;8.37;2.20;;;19.80;99.90;;;;;;4917759;29;20221;-68
2022/03/14 09:50:20;;;;;;;8.10;1.83;;;19.70;99.90;;;;;;4918144;29;20217;-69
2022/03/14 09:52:49;;;;;;;9.47;2.00;;;19.60;99.90;;;;;;4916388;29;20528;-69
2022/03/14 09:55:17;;;;;;;11.60;2.30;;;19.60;99.90;;;;;;4916649;29;20189;-68
2022/03/14 09:57:45;;;;;;;7.97;2.27;;;19.60;99.90;;;;;;4917745;29;20726;-69
2022/03/14 10:00:13;;;;;;;6.37;1.90;;;19.50;99.90;;;;;;4916272;29;20671;-69
2022/03/14 10:02:44;;;;;;;4.33;1.53;;;19.60;99.90;;;;;;4916372;29;20265;-69
2022/03/14 10:05:15;;;;;;;5.33;2.10;;;19.60;99.90;;;;;;4917518;29;20191;-69
2022/03/14 10:07:45;;;;;;;7.00;1.57;;;19.70;99.90;;;;;;4918258;29;20598;-69
2022/03/14 10:10:14;;;;;;;6.57;1.70;;;19.80;99.90;;;;;;4917543;29;20193;-69
2022/03/14 10:12:44;;;;;;;4.67;1.40;;;19.80;99.90;;;;;;4916389;29;20195;-69
2022/03/14 10:15:13;;;;;;;5.17;1.80;;;19.80;99.90;;;;;;4917071;29;20237;-69
2022/03/14 10:17:41;;;;;;;9.90;2.37;;;19.80;99.90;;;;;;4917780;29;20185;-70
2022/03/14 10:20:09;;;;;;;4.87;1.57;;;19.80;99.90;;;;;;4917615;29;20194;-69
2022/03/14 10:22:39;;;;;;;8.33;1.93;;;19.70;99.90;;;;;;4915931;29;20200;-70
2022/03/14 10:25:10;;;;;;;4.83;1.57;;;19.70;99.90;;;;;;4916259;29;20648;-69
2022/03/14 10:27:39;;;;;;;6.37;1.70;;;19.70;99.90;;;;;;4916920;29;20222;-69
2022/03/14 10:30:20;;;;;;;5.27;2.03;;;19.70;99.90;;;;;;4917482;29;20180;-68
2022/03/14 10:32:49;;;;;;;4.33;1.30;;;19.70;99.90;;;;;;4917320;29;20186;-70
2022/03/14 10:35:22;;;;;;;10.13;2.10;;;19.60;99.90;;;;;;4915777;29;20640;-69
2022/03/14 10:38:02;;;;;;;5.37;1.37;;;19.50;99.90;;;;;;4915806;29;20194;-70
2022/03/14 10:40:38;;;;;;;9.87;2.17;;;19.50;99.90;;;;;;4916564;29;20560;-69
2022/03/14 10:43:27;;;;;;;7.80;1.90;;;19.50;99.90;;;;;;4917148;29;20662;-70
2022/03/14 10:45:56;;;;;;;8.03;2.10;;;19.50;99.90;;;;;;4916911;29;20302;-70
2022/03/14 10:48:47;;;;;;;8.63;2.20;;;19.30;99.90;;;;;;4915854;29;20202;-70
2022/03/14 10:51:16;;;;;;;9.97;2.03;;;19.30;99.90;;;;;;4910325;29;20594;-70
2022/03/14 10:53:45;;;;;;;9.03;1.83;;;19.20;99.90;;;;;;4916506;29;20224;-70
2022/03/14 10:56:14;;;;;;;6.67;2.60;;;19.20;99.90;;;;;;4915788;29;20602;-70
2022/03/14 10:58:43;;;;;;;7.20;2.53;;;19.10;99.90;;;;;;4916861;29;20222;-70
2022/03/14 11:01:12;;;;;;;9.93;2.50;;;19.20;99.90;;;;;;4917213;29;20580;-69
2022/03/14 11:03:45;;;;;;;7.93;2.53;;;19.10;99.90;;;;;;4917055;29;20225;-70
2022/03/14 11:06:18;;;;;;;11.47;2.60;;;19.10;99.90;;;;;;4916953;29;20268;-70
2022/03/14 11:08:51;;;;;;;9.87;2.40;;;19.10;99.90;;;;;;4916530;29;20597;-71
2022/03/14 11:11:22;;;;;;;9.33;2.60;;;19.10;99.90;;;;;;4916799;29;20182;-70
2022/03/14 11:13:52;;;;;;;7.27;2.40;;;19.10;99.90;;;;;;4916727;29;20217;-71
2022/03/14 11:16:21;;;;;;;5.57;1.97;;;19.00;99.90;;;;;;4917253;29;20181;-70
2022/03/14 11:18:49;;;;;;;7.10;2.47;;;18.90;99.90;;;;;;4917103;29;20180;-70
2022/03/14 11:21:19;;;;;;;4.57;1.87;;;18.80;99.90;;;;;;4917252;29;20181;-70
2022/03/14 11:23:51;;;;;;;11.10;2.60;;;18.80;99.90;;;;;;4917032;29;20210;-70
2022/03/14 11:26:24;;;;;;;6.63;2.20;;;18.80;99.90;;;;;;4916661;29;20201;-69
2022/03/14 11:28:54;;;;;;;9.97;1.77;;;18.80;99.90;;;;;;4916387;29;20214;-69
2022/03/14 11:31:23;;;;;;;10.30;2.47;;;18.90;99.90;;;;;;4916874;29;20235;-70
2022/03/14 11:33:51;;;;;;;7.57;2.00;;;18.90;99.90;;;;;;4916546;29;20181;-70
2022/03/14 11:36:22;;;;;;;8.63;1.77;;;18.90;99.90;;;;;;4916831;29;20286;-68
2022/03/14 11:38:50;;;;;;;6.80;2.10;;;18.90;99.90;;;;;;4916553;29;20185;-69
2022/03/14 11:41:18;;;;;;;5.67;1.90;;;18.80;99.90;;;;;;4915217;29;20566;-70
2022/03/14 11:43:48;;;;;;;8.70;2.50;;;18.80;99.90;;;;;;4916795;29;20581;-71
2022/03/14 11:46:16;;;;;;;5.30;1.73;;;18.80;99.90;;;;;;4916243;29;20209;-70
2022/03/14 11:48:44;;;;;;;6.17;1.47;;;18.80;99.90;;;;;;4916391;29;20200;-70
2022/03/14 11:51:11;;;;;;;6.73;1.73;;;18.80;99.90;;;;;;4916813;29;20181;-70
2022/03/14 11:53:51;;;;;;;6.23;1.60;;;18.80;99.90;;;;;;4901386;29;20194;-70
2022/03/14 11:56:19;;;;;;;6.07;1.97;;;18.80;99.90;;;;;;4901707;29;20183;-70
2022/03/14 11:58:49;;;;;;;4.87;1.87;;;18.80;99.90;;;;;;4914731;29;20224;-70
2022/03/14 12:01:26;;;;;;;8.30;1.67;;;18.80;99.90;;;;;;4919746;29;20732;-70
2022/03/14 12:03:56;;;;;;;6.67;1.73;;;18.70;99.90;;;;;;4920099;29;20188;-70
2022/03/14 12:06:47;;;;;;;8.33;1.73;;;18.70;99.90;;;;;;4920144;29;20248;-70
2022/03/14 12:09:27;;;;;;;5.67;1.40;;;18.70;99.90;;;;;;4919956;29;20209;-70
2022/03/14 12:12:01;;;;;;;6.17;1.73;;;18.60;99.90;;;;;;4918536;29;20196;-70
2022/03/14 12:14:46;;;;;;;7.73;1.70;;;18.60;99.90;;;;;;4920092;29;20193;-69
2022/03/14 12:17:17;;;;;;;5.37;1.50;;;18.50;99.90;;;;;;4919245;29;20193;-70
2022/03/14 12:20:15;;;;;;;9.43;1.43;;;18.50;99.90;;;;;;4919622;29;20189;-70
2022/03/14 12:22:45;;;;;;;7.63;1.53;;;18.50;99.90;;;;;;4893723;29;20198;-70
2022/03/14 12:25:32;;;;;;;6.07;1.60;;;18.50;99.90;;;;;;4901164;29;20224;-70
2022/03/14 12:28:32;;;;;;;3.23;1.53;;;18.60;99.90;;;;;;4914048;29;20690;-69
2022/03/14 12:31:14;;;;;;;5.40;1.53;;;18.70;99.90;;;;;;4919648;29;20613;-70
2022/03/14 12:33:46;;;;;;;5.67;1.37;;;18.80;99.90;;;;;;4919327;29;20188;-69
2022/03/14 12:36:23;;;;;;;6.53;2.10;;;18.80;99.90;;;;;;4919331;29;20256;-69
2022/03/14 12:39:09;;;;;;;4.90;1.57;;;18.70;99.90;;;;;;4919465;29;20193;-69
2022/03/14 12:41:38;;;;;;;6.47;1.40;;;18.40;99.90;;;;;;4919259;29;20210;-70
2022/03/14 12:44:24;;;;;;;5.37;1.67;;;18.40;99.90;;;;;;4919288;29;20268;-68
2022/03/14 12:46:56;;;;;;;8.90;2.03;;;18.30;99.90;;;;;;4919578;29;20580;-69
2022/03/14 12:49:42;;;;;;;4.40;1.80;;;18.30;99.90;;;;;;4928051;29;20231;-69
2022/03/14 12:52:14;;;;;;;4.83;1.20;;;18.20;99.90;;;;;;4931966;29;20715;-69
2022/03/14 12:54:44;;;;;;;5.50;1.17;;;18.30;99.90;;;;;;4930772;29;20189;-69
2022/03/14 12:57:12;;;;;;;5.57;1.57;;;18.10;99.90;;;;;;4933427;29;20284;-69
2022/03/14 12:59:48;;;;;;;7.17;1.80;;;18.10;99.90;;;;;;4929078;29;20188;-71